sensor_id;sensor_type;location;lat;lon;timestamp;temperature;humidity
23207;DHT22;11773;52.570;13.052;2022-07-30T00:01:12;22.80;95.70
23207;DHT22;11773;52.570;13.052;2022-07-30T00:03:41;22.80;95.80
23207;DHT22;11773;52.570;13.052;2022-07-30T00:06:11;22.80;95.70
23207;DHT22;11773;52.570;13.052;2022-07-30T00:08:40;22.80;96.50
23207;DHT22;11773;52.570;13.052;2022-07-30T00:11:10;22.70;96.80
23207;DHT22;11773;52.570;13.052;2022-07-30T00:13:39;22.70;96.60
23207;DHT22;11773;52.570;13.052;2022-07-30T00:16:09;22.70;96.70
23207;DHT22;11773;52.570;13.052;2022-07-30T00:18:38;22.70;96.70
23207;DHT22;11773;52.570;13.052;2022-07-30T00:21:09;22.70;96.50
23207;DHT22;11773;52.570;13.052;2022-07-30T00:23:40;22.50;96.80
23207;DHT22;11773;52.570;13.052;2022-07-30T00:26:11;22.50;96.30
23207;DHT22;11773;52.570;13.052;2022-07-30T00:28:41;22.50;96.20
23207;DHT22;11773;52.570;13.052;2022-07-30T00:31:11;22.50;96.10
23207;DHT22;11773;52.570;13.052;2022-07-30T00:33:40;22.50;96.70
23207;DHT22;11773;52.570;13.052;2022-07-30T00:36:10;22.40;96.70
23207;DHT22;11773;52.570;13.052;2022-07-30T00:38:39;22.50;96.30
23207;DHT22;11773;52.570;13.052;2022-07-30T00:41:09;22.40;96.80
23207;DHT22;11773;52.570;13.052;2022-07-30T00:43:39;22.40;96.70
23207;DHT22;11773;52.570;13.052;2022-07-30T00:46:08;22.50;96.70
23207;DHT22;11773;52.570;13.052;2022-07-30T00:48:38;22.40;96.90
23207;DHT22;11773;52.570;13.052;2022-07-30T00:51:08;22.40;96.80
23207;DHT22;11773;52.570;13.052;2022-07-30T00:53:38;22.40;97.00
23207;DHT22;11773;52.570;13.052;2022-07-30T00:56:08;22.20;96.70
23207;DHT22;11773;52.570;13.052;2022-07-30T00:58:37;22.20;97.00
23207;DHT22;11773;52.570;13.052;2022-07-30T01:01:07;22.30;96.90
23207;DHT22;11773;52.570;13.052;2022-07-30T01:03:36;22.30;97.10
23207;DHT22;11773;52.570;13.052;2022-07-30T01:06:06;22.40;96.70
23207;DHT22;11773;52.570;13.052;2022-07-30T01:08:37;22.30;97.10
23207;DHT22;11773;52.570;13.052;2022-07-30T01:11:07;22.40;96.50
23207;DHT22;11773;52.570;13.052;2022-07-30T01:13:37;22.40;96.70
23207;DHT22;11773;52.570;13.052;2022-07-30T01:16:07;22.30;96.70
23207;DHT22;11773;52.570;13.052;2022-07-30T01:18:38;22.30;96.60
23207;DHT22;11773;52.570;13.052;2022-07-30T01:21:31;22.20;96.90
23207;DHT22;11773;52.570;13.052;2022-07-30T01:26:54;22.10;97.00
23207;DHT22;11773;52.570;13.052;2022-07-30T01:29:27;22.10;96.50
23207;DHT22;11773;52.570;13.052;2022-07-30T01:31:59;22.20;96.30
23207;DHT22;11773;52.570;13.052;2022-07-30T01:34:32;22.20;96.80
23207;DHT22;11773;52.570;13.052;2022-07-30T01:37:04;22.20;96.40
23207;DHT22;11773;52.570;13.052;2022-07-30T01:39:37;22.20;96.50
23207;DHT22;11773;52.570;13.052;2022-07-30T01:42:09;22.10;96.90
23207;DHT22;11773;52.570;13.052;2022-07-30T01:44:41;22.20;96.60
23207;DHT22;11773;52.570;13.052;2022-07-30T01:47:13;22.10;96.80
23207;DHT22;11773;52.570;13.052;2022-07-30T01:49:46;22.00;97.50
23207;DHT22;11773;52.570;13.052;2022-07-30T01:52:17;22.00;96.70
23207;DHT22;11773;52.570;13.052;2022-07-30T01:54:50;22.00;97.10
23207;DHT22;11773;52.570;13.052;2022-07-30T01:57:22;21.90;97.20
23207;DHT22;11773;52.570;13.052;2022-07-30T01:59:56;21.90;97.50
23207;DHT22;11773;52.570;13.052;2022-07-30T02:02:27;21.90;97.80
23207;DHT22;11773;52.570;13.052;2022-07-30T02:04:57;21.90;97.00
23207;DHT22;11773;52.570;13.052;2022-07-30T02:07:35;21.90;97.30
23207;DHT22;11773;52.570;13.052;2022-07-30T02:13:06;21.90;97.20
23207;DHT22;11773;52.570;13.052;2022-07-30T02:15:51;22.00;97.40
23207;DHT22;11773;52.570;13.052;2022-07-30T02:18:39;22.00;97.00
23207;DHT22;11773;52.570;13.052;2022-07-30T02:21:16;22.00;97.50
23207;DHT22;11773;52.570;13.052;2022-07-30T02:23:48;21.90;97.60
23207;DHT22;11773;52.570;13.052;2022-07-30T02:26:21;21.90;97.20
23207;DHT22;11773;52.570;13.052;2022-07-30T02:28:56;21.90;97.00
23207;DHT22;11773;52.570;13.052;2022-07-30T02:31:29;21.80;97.50
23207;DHT22;11773;52.570;13.052;2022-07-30T02:34:02;21.70;97.50
23207;DHT22;11773;52.570;13.052;2022-07-30T02:36:34;21.80;97.60
23207;DHT22;11773;52.570;13.052;2022-07-30T02:39:06;21.70;97.80
23207;DHT22;11773;52.570;13.052;2022-07-30T02:41:38;21.80;97.90
23207;DHT22;11773;52.570;13.052;2022-07-30T02:44:11;21.70;97.90
23207;DHT22;11773;52.570;13.052;2022-07-30T02:46:42;21.80;97.80
23207;DHT22;11773;52.570;13.052;2022-07-30T02:49:16;21.70;97.80
23207;DHT22;11773;52.570;13.052;2022-07-30T02:51:48;21.70;98.20
23207;DHT22;11773;52.570;13.052;2022-07-30T02:54:20;21.70;98.60
23207;DHT22;11773;52.570;13.052;2022-07-30T02:56:52;21.70;98.50
23207;DHT22;11773;52.570;13.052;2022-07-30T02:59:23;21.70;98.30
23207;DHT22;11773;52.570;13.052;2022-07-30T03:01:54;21.70;97.80
23207;DHT22;11773;52.570;13.052;2022-07-30T03:04:25;21.70;98.10
23207;DHT22;11773;52.570;13.052;2022-07-30T03:06:55;21.70;98.50
23207;DHT22;11773;52.570;13.052;2022-07-30T03:09:29;21.80;98.60
23207;DHT22;11773;52.570;13.052;2022-07-30T03:12:02;21.70;98.90
23207;DHT22;11773;52.570;13.052;2022-07-30T03:14:35;21.70;98.70
23207;DHT22;11773;52.570;13.052;2022-07-30T03:17:05;21.70;99.00
23207;DHT22;11773;52.570;13.052;2022-07-30T03:19:37;21.50;98.60
23207;DHT22;11773;52.570;13.052;2022-07-30T03:22:08;21.60;98.30
23207;DHT22;11773;52.570;13.052;2022-07-30T03:24:41;21.50;98.50
23207;DHT22;11773;52.570;13.052;2022-07-30T03:27:13;21.60;98.40
23207;DHT22;11773;52.570;13.052;2022-07-30T03:29:46;21.60;99.00
23207;DHT22;11773;52.570;13.052;2022-07-30T03:32:17;21.60;99.40
23207;DHT22;11773;52.570;13.052;2022-07-30T03:34:49;21.50;99.00
23207;DHT22;11773;52.570;13.052;2022-07-30T03:37:20;21.30;99.10
23207;DHT22;11773;52.570;13.052;2022-07-30T03:39:52;21.40;99.00
23207;DHT22;11773;52.570;13.052;2022-07-30T03:42:25;21.50;98.90
23207;DHT22;11773;52.570;13.052;2022-07-30T03:44:56;21.50;99.10
23207;DHT22;11773;52.570;13.052;2022-07-30T03:47:27;21.50;98.80
23207;DHT22;11773;52.570;13.052;2022-07-30T03:49:59;21.50;98.60
23207;DHT22;11773;52.570;13.052;2022-07-30T03:52:29;21.50;98.90
23207;DHT22;11773;52.570;13.052;2022-07-30T03:55:09;21.50;99.10
23207;DHT22;11773;52.570;13.052;2022-07-30T03:57:39;21.40;98.80
23207;DHT22;11773;52.570;13.052;2022-07-30T04:00:13;21.30;99.10
23207;DHT22;11773;52.570;13.052;2022-07-30T04:02:44;21.30;98.90
23207;DHT22;11773;52.570;13.052;2022-07-30T04:05:15;21.40;98.60
23207;DHT22;11773;52.570;13.052;2022-07-30T04:07:44;21.30;98.80
23207;DHT22;11773;52.570;13.052;2022-07-30T04:10:16;21.20;99.00
23207;DHT22;11773;52.570;13.052;2022-07-30T04:12:45;21.30;98.70
23207;DHT22;11773;52.570;13.052;2022-07-30T04:15:15;21.10;99.00
23207;DHT22;11773;52.570;13.052;2022-07-30T04:17:48;21.20;98.60
23207;DHT22;11773;52.570;13.052;2022-07-30T04:20:31;21.30;98.70
23207;DHT22;11773;52.570;13.052;2022-07-30T04:23:03;21.40;98.50
23207;DHT22;11773;52.570;13.052;2022-07-30T04:25:33;21.30;98.80
23207;DHT22;11773;52.570;13.052;2022-07-30T04:28:04;21.30;98.80
23207;DHT22;11773;52.570;13.052;2022-07-30T04:30:34;21.30;99.00
23207;DHT22;11773;52.570;13.052;2022-07-30T04:33:04;21.10;98.80
23207;DHT22;11773;52.570;13.052;2022-07-30T04:35:35;21.10;98.60
23207;DHT22;11773;52.570;13.052;2022-07-30T04:38:07;21.10;98.70
23207;DHT22;11773;52.570;13.052;2022-07-30T04:40:37;21.10;98.70
23207;DHT22;11773;52.570;13.052;2022-07-30T04:43:07;21.00;99.00
23207;DHT22;11773;52.570;13.052;2022-07-30T04:45:38;21.10;99.20
23207;DHT22;11773;52.570;13.052;2022-07-30T04:48:09;21.10;98.90
23207;DHT22;11773;52.570;13.052;2022-07-30T04:50:40;21.20;99.20
23207;DHT22;11773;52.570;13.052;2022-07-30T04:53:12;21.20;98.90
23207;DHT22;11773;52.570;13.052;2022-07-30T04:55:45;21.20;98.70
23207;DHT22;11773;52.570;13.052;2022-07-30T04:58:19;21.20;99.10
23207;DHT22;11773;52.570;13.052;2022-07-30T05:00:51;21.20;99.40
23207;DHT22;11773;52.570;13.052;2022-07-30T05:03:22;21.20;99.40
23207;DHT22;11773;52.570;13.052;2022-07-30T05:05:55;21.20;99.30
23207;DHT22;11773;52.570;13.052;2022-07-30T05:08:25;21.20;99.00
23207;DHT22;11773;52.570;13.052;2022-07-30T05:10:57;21.30;99.20
23207;DHT22;11773;52.570;13.052;2022-07-30T05:13:27;21.30;99.10
23207;DHT22;11773;52.570;13.052;2022-07-30T05:15:58;21.30;99.70
23207;DHT22;11773;52.570;13.052;2022-07-30T05:18:27;21.20;99.50
23207;DHT22;11773;52.570;13.052;2022-07-30T05:20:57;21.20;99.40
23207;DHT22;11773;52.570;13.052;2022-07-30T05:23:26;21.40;99.40
23207;DHT22;11773;52.570;13.052;2022-07-30T05:25:56;21.30;98.90
23207;DHT22;11773;52.570;13.052;2022-07-30T05:28:26;21.30;99.50
23207;DHT22;11773;52.570;13.052;2022-07-30T05:30:56;21.30;99.30
23207;DHT22;11773;52.570;13.052;2022-07-30T05:33:25;21.20;99.50
23207;DHT22;11773;52.570;13.052;2022-07-30T05:35:56;21.30;99.40
23207;DHT22;11773;52.570;13.052;2022-07-30T05:38:27;21.30;99.40
23207;DHT22;11773;52.570;13.052;2022-07-30T05:40:56;21.50;99.30
23207;DHT22;11773;52.570;13.052;2022-07-30T05:43:26;21.60;98.80
23207;DHT22;11773;52.570;13.052;2022-07-30T05:45:55;21.60;98.80
23207;DHT22;11773;52.570;13.052;2022-07-30T05:48:25;21.60;99.20
23207;DHT22;11773;52.570;13.052;2022-07-30T05:50:54;21.50;99.10
23207;DHT22;11773;52.570;13.052;2022-07-30T05:53:24;21.60;99.00
23207;DHT22;11773;52.570;13.052;2022-07-30T05:55:53;21.50;98.90
23207;DHT22;11773;52.570;13.052;2022-07-30T05:58:23;21.60;99.20
23207;DHT22;11773;52.570;13.052;2022-07-30T06:00:53;21.50;98.90
23207;DHT22;11773;52.570;13.052;2022-07-30T06:03:23;21.70;99.40
23207;DHT22;11773;52.570;13.052;2022-07-30T06:05:53;21.80;99.00
23207;DHT22;11773;52.570;13.052;2022-07-30T06:08:22;21.80;99.00
23207;DHT22;11773;52.570;13.052;2022-07-30T06:10:52;22.00;99.20
23207;DHT22;11773;52.570;13.052;2022-07-30T06:13:21;22.20;98.90
23207;DHT22;11773;52.570;13.052;2022-07-30T06:15:51;22.40;98.80
23207;DHT22;11773;52.570;13.052;2022-07-30T06:18:20;22.70;98.30
23207;DHT22;11773;52.570;13.052;2022-07-30T06:20:51;22.90;98.30
23207;DHT22;11773;52.570;13.052;2022-07-30T06:23:22;23.00;98.30
23207;DHT22;11773;52.570;13.052;2022-07-30T06:25:51;22.90;97.70
23207;DHT22;11773;52.570;13.052;2022-07-30T06:28:21;23.00;98.10
23207;DHT22;11773;52.570;13.052;2022-07-30T06:30:52;23.20;97.40
23207;DHT22;11773;52.570;13.052;2022-07-30T06:33:22;23.20;97.60
23207;DHT22;11773;52.570;13.052;2022-07-30T06:35:51;23.40;97.80
23207;DHT22;11773;52.570;13.052;2022-07-30T06:38:21;23.50;97.10
23207;DHT22;11773;52.570;13.052;2022-07-30T06:40:51;23.60;97.60
23207;DHT22;11773;52.570;13.052;2022-07-30T06:43:21;23.70;97.30
23207;DHT22;11773;52.570;13.052;2022-07-30T06:45:50;23.80;97.40
23207;DHT22;11773;52.570;13.052;2022-07-30T06:48:20;23.70;97.20
23207;DHT22;11773;52.570;13.052;2022-07-30T06:50:49;23.90;97.20
23207;DHT22;11773;52.570;13.052;2022-07-30T06:53:19;23.90;97.30
23207;DHT22;11773;52.570;13.052;2022-07-30T06:55:48;24.10;96.90
23207;DHT22;11773;52.570;13.052;2022-07-30T06:58:20;24.20;96.30
23207;DHT22;11773;52.570;13.052;2022-07-30T07:00:51;24.40;96.60
23207;DHT22;11773;52.570;13.052;2022-07-30T07:03:20;24.60;95.90
23207;DHT22;11773;52.570;13.052;2022-07-30T07:05:50;24.60;95.90
23207;DHT22;11773;52.570;13.052;2022-07-30T07:08:20;24.70;95.90
23207;DHT22;11773;52.570;13.052;2022-07-30T07:10:51;24.90;95.60
23207;DHT22;11773;52.570;13.052;2022-07-30T07:13:21;25.20;95.70
23207;DHT22;11773;52.570;13.052;2022-07-30T07:15:50;25.30;95.90
23207;DHT22;11773;52.570;13.052;2022-07-30T07:18:20;25.50;95.40
23207;DHT22;11773;52.570;13.052;2022-07-30T07:20:49;25.70;94.30
23207;DHT22;11773;52.570;13.052;2022-07-30T07:23:19;25.90;94.40
23207;DHT22;11773;52.570;13.052;2022-07-30T07:25:49;26.10;94.30
23207;DHT22;11773;52.570;13.052;2022-07-30T07:28:18;26.00;94.20
23207;DHT22;11773;52.570;13.052;2022-07-30T07:30:50;26.20;94.20
23207;DHT22;11773;52.570;13.052;2022-07-30T07:33:19;26.20;94.20
23207;DHT22;11773;52.570;13.052;2022-07-30T07:35:49;26.50;95.00
23207;DHT22;11773;52.570;13.052;2022-07-30T07:38:20;26.30;93.80
23207;DHT22;11773;52.570;13.052;2022-07-30T07:40:49;26.30;94.10
23207;DHT22;11773;52.570;13.052;2022-07-30T07:43:19;26.30;94.40
23207;DHT22;11773;52.570;13.052;2022-07-30T07:45:49;26.60;95.30
23207;DHT22;11773;52.570;13.052;2022-07-30T07:48:18;26.50;94.60
23207;DHT22;11773;52.570;13.052;2022-07-30T07:50:49;26.50;94.30
23207;DHT22;11773;52.570;13.052;2022-07-30T07:53:20;26.70;93.50
23207;DHT22;11773;52.570;13.052;2022-07-30T07:55:50;26.90;93.60
23207;DHT22;11773;52.570;13.052;2022-07-30T07:58:21;27.10;93.50
23207;DHT22;11773;52.570;13.052;2022-07-30T08:00:53;27.40;93.40
23207;DHT22;11773;52.570;13.052;2022-07-30T08:03:23;27.40;94.00
23207;DHT22;11773;52.570;13.052;2022-07-30T08:05:52;27.20;93.60
23207;DHT22;11773;52.570;13.052;2022-07-30T08:08:23;26.80;93.80
23207;DHT22;11773;52.570;13.052;2022-07-30T08:10:53;26.60;94.70
23207;DHT22;11773;52.570;13.052;2022-07-30T08:13:23;26.60;94.90
23207;DHT22;11773;52.570;13.052;2022-07-30T08:15:54;26.60;94.60
23207;DHT22;11773;52.570;13.052;2022-07-30T08:18:24;26.50;94.90
23207;DHT22;11773;52.570;13.052;2022-07-30T08:20:53;26.40;95.00
23207;DHT22;11773;52.570;13.052;2022-07-30T08:23:23;26.20;95.30
23207;DHT22;11773;52.570;13.052;2022-07-30T08:25:52;26.40;95.50
23207;DHT22;11773;52.570;13.052;2022-07-30T08:28:24;26.10;95.00
23207;DHT22;11773;52.570;13.052;2022-07-30T08:30:56;26.10;95.70
23207;DHT22;11773;52.570;13.052;2022-07-30T08:33:27;26.30;95.00
23207;DHT22;11773;52.570;13.052;2022-07-30T08:35:56;26.30;94.70
23207;DHT22;11773;52.570;13.052;2022-07-30T08:38:28;26.20;95.40
23207;DHT22;11773;52.570;13.052;2022-07-30T08:40:57;26.40;95.00
23207;DHT22;11773;52.570;13.052;2022-07-30T08:43:27;26.60;94.80
23207;DHT22;11773;52.570;13.052;2022-07-30T08:45:58;26.70;94.60
23207;DHT22;11773;52.570;13.052;2022-07-30T08:48:30;26.60;94.30
23207;DHT22;11773;52.570;13.052;2022-07-30T08:51:01;26.80;95.40
23207;DHT22;11773;52.570;13.052;2022-07-30T08:53:32;26.90;94.10
23207;DHT22;11773;52.570;13.052;2022-07-30T08:56:04;27.00;94.60
23207;DHT22;11773;52.570;13.052;2022-07-30T08:58:35;26.70;93.80
23207;DHT22;11773;52.570;13.052;2022-07-30T09:01:05;27.00;94.10
23207;DHT22;11773;52.570;13.052;2022-07-30T09:03:36;27.20;93.90
23207;DHT22;11773;52.570;13.052;2022-07-30T09:06:08;27.50;94.30
23207;DHT22;11773;52.570;13.052;2022-07-30T09:08:37;27.40;94.40
23207;DHT22;11773;52.570;13.052;2022-07-30T09:11:07;27.30;93.80
23207;DHT22;11773;52.570;13.052;2022-07-30T09:13:39;27.50;93.90
23207;DHT22;11773;52.570;13.052;2022-07-30T09:16:20;27.60;94.00
23207;DHT22;11773;52.570;13.052;2022-07-30T09:18:53;27.80;93.30
23207;DHT22;11773;52.570;13.052;2022-07-30T09:21:25;28.10;93.60
23207;DHT22;11773;52.570;13.052;2022-07-30T09:23:59;27.80;93.00
23207;DHT22;11773;52.570;13.052;2022-07-30T09:26:31;27.70;93.30
23207;DHT22;11773;52.570;13.052;2022-07-30T09:29:23;28.00;93.60
23207;DHT22;11773;52.570;13.052;2022-07-30T09:32:02;28.10;93.30
23207;DHT22;11773;52.570;13.052;2022-07-30T09:34:36;28.20;93.50
23207;DHT22;11773;52.570;13.052;2022-07-30T09:39:44;28.10;93.30
23207;DHT22;11773;52.570;13.052;2022-07-30T09:42:20;27.80;92.90
23207;DHT22;11773;52.570;13.052;2022-07-30T09:45:09;27.80;93.60
23207;DHT22;11773;52.570;13.052;2022-07-30T09:47:45;28.10;93.50
23207;DHT22;11773;52.570;13.052;2022-07-30T09:50:17;28.20;93.50
23207;DHT22;11773;52.570;13.052;2022-07-30T09:52:51;28.20;93.10
23207;DHT22;11773;52.570;13.052;2022-07-30T09:55:32;28.40;93.40
23207;DHT22;11773;52.570;13.052;2022-07-30T09:58:05;28.60;93.60
23207;DHT22;11773;52.570;13.052;2022-07-30T10:00:36;28.70;93.60
23207;DHT22;11773;52.570;13.052;2022-07-30T10:03:20;28.50;93.10
23207;DHT22;11773;52.570;13.052;2022-07-30T10:05:56;28.30;93.60
23207;DHT22;11773;52.570;13.052;2022-07-30T10:08:42;28.40;93.50
23207;DHT22;11773;52.570;13.052;2022-07-30T10:11:17;28.40;93.00
23207;DHT22;11773;52.570;13.052;2022-07-30T10:13:52;28.30;93.40
23207;DHT22;11773;52.570;13.052;2022-07-30T10:16:29;28.60;93.70
23207;DHT22;11773;52.570;13.052;2022-07-30T10:18:59;28.70;93.60
23207;DHT22;11773;52.570;13.052;2022-07-30T10:21:29;28.60;93.30
23207;DHT22;11773;52.570;13.052;2022-07-30T10:24:01;28.90;93.30
23207;DHT22;11773;52.570;13.052;2022-07-30T10:26:33;28.90;92.80
23207;DHT22;11773;52.570;13.052;2022-07-30T10:29:03;29.00;92.80
23207;DHT22;11773;52.570;13.052;2022-07-30T10:31:32;28.90;92.90
23207;DHT22;11773;52.570;13.052;2022-07-30T10:34:04;29.10;93.10
23207;DHT22;11773;52.570;13.052;2022-07-30T10:36:59;29.00;93.00
23207;DHT22;11773;52.570;13.052;2022-07-30T10:39:26;29.30;92.70
23207;DHT22;11773;52.570;13.052;2022-07-30T10:42:17;29.30;92.80
23207;DHT22;11773;52.570;13.052;2022-07-30T10:45:11;29.30;92.40
23207;DHT22;11773;52.570;13.052;2022-07-30T10:47:50;29.80;92.50
23207;DHT22;11773;52.570;13.052;2022-07-30T10:50:24;29.40;91.90
23207;DHT22;11773;52.570;13.052;2022-07-30T10:52:59;29.50;91.40
23207;DHT22;11773;52.570;13.052;2022-07-30T10:55:31;29.30;91.60
23207;DHT22;11773;52.570;13.052;2022-07-30T10:58:13;29.60;92.40
23207;DHT22;11773;52.570;13.052;2022-07-30T11:03:26;29.70;91.80
23207;DHT22;11773;52.570;13.052;2022-07-30T11:08:51;29.60;91.10
23207;DHT22;11773;52.570;13.052;2022-07-30T11:14:02;29.80;91.70
23207;DHT22;11773;52.570;13.052;2022-07-30T11:19:10;29.70;91.10
23207;DHT22;11773;52.570;13.052;2022-07-30T11:21:46;29.80;91.40
23207;DHT22;11773;52.570;13.052;2022-07-30T11:24:41;29.70;90.50
23207;DHT22;11773;52.570;13.052;2022-07-30T11:27:34;29.60;91.10
23207;DHT22;11773;52.570;13.052;2022-07-30T11:35:27;29.50;90.70
23207;DHT22;11773;52.570;13.052;2022-07-30T11:38:07;29.40;90.30
23207;DHT22;11773;52.570;13.052;2022-07-30T11:43:23;29.40;90.40
23207;DHT22;11773;52.570;13.052;2022-07-30T11:46:09;29.30;89.50
23207;DHT22;11773;52.570;13.052;2022-07-30T11:48:57;29.60;87.60
23207;DHT22;11773;52.570;13.052;2022-07-30T11:51:46;29.70;90.10
23207;DHT22;11773;52.570;13.052;2022-07-30T11:54:13;29.20;89.60
23207;DHT22;11773;52.570;13.052;2022-07-30T11:56:54;29.40;87.60
23207;DHT22;11773;52.570;13.052;2022-07-30T11:59:29;29.60;90.20
23207;DHT22;11773;52.570;13.052;2022-07-30T12:01:59;29.80;89.70
23207;DHT22;11773;52.570;13.052;2022-07-30T12:04:29;29.50;88.50
23207;DHT22;11773;52.570;13.052;2022-07-30T12:06:59;29.70;91.00
23207;DHT22;11773;52.570;13.052;2022-07-30T12:09:29;29.90;91.40
23207;DHT22;11773;52.570;13.052;2022-07-30T12:12:00;30.00;88.70
23207;DHT22;11773;52.570;13.052;2022-07-30T12:14:37;29.80;88.30
23207;DHT22;11773;52.570;13.052;2022-07-30T12:17:07;29.70;88.60
23207;DHT22;11773;52.570;13.052;2022-07-30T12:19:46;30.00;90.50
23207;DHT22;11773;52.570;13.052;2022-07-30T12:22:16;29.90;89.10
23207;DHT22;11773;52.570;13.052;2022-07-30T12:24:46;30.10;88.40
23207;DHT22;11773;52.570;13.052;2022-07-30T12:27:16;29.70;89.20
23207;DHT22;11773;52.570;13.052;2022-07-30T12:29:46;29.60;87.90
23207;DHT22;11773;52.570;13.052;2022-07-30T12:32:16;29.80;89.00
23207;DHT22;11773;52.570;13.052;2022-07-30T12:34:55;29.80;87.70
23207;DHT22;11773;52.570;13.052;2022-07-30T12:37:25;29.80;88.20
23207;DHT22;11773;52.570;13.052;2022-07-30T12:40:09;29.70;88.50
23207;DHT22;11773;52.570;13.052;2022-07-30T12:42:52;29.60;88.50
23207;DHT22;11773;52.570;13.052;2022-07-30T12:45:26;29.40;89.10
23207;DHT22;11773;52.570;13.052;2022-07-30T12:47:59;29.60;89.80
23207;DHT22;11773;52.570;13.052;2022-07-30T12:53:06;29.90;88.60
23207;DHT22;11773;52.570;13.052;2022-07-30T12:55:35;29.60;87.80
23207;DHT22;11773;52.570;13.052;2022-07-30T12:58:06;29.50;89.40
23207;DHT22;11773;52.570;13.052;2022-07-30T13:00:47;29.70;90.20
23207;DHT22;11773;52.570;13.052;2022-07-30T13:03:24;29.70;86.80
23207;DHT22;11773;52.570;13.052;2022-07-30T13:05:55;29.40;88.20
23207;DHT22;11773;52.570;13.052;2022-07-30T13:08:44;29.40;88.70
23207;DHT22;11773;52.570;13.052;2022-07-30T13:11:26;29.70;88.90
23207;DHT22;11773;52.570;13.052;2022-07-30T13:13:57;29.80;88.00
23207;DHT22;11773;52.570;13.052;2022-07-30T13:16:30;29.80;87.80
23207;DHT22;11773;52.570;13.052;2022-07-30T13:19:04;30.00;90.50
23207;DHT22;11773;52.570;13.052;2022-07-30T13:21:35;30.00;87.20
23207;DHT22;11773;52.570;13.052;2022-07-30T13:24:05;30.00;88.10
23207;DHT22;11773;52.570;13.052;2022-07-30T13:26:37;29.80;88.30
23207;DHT22;11773;52.570;13.052;2022-07-30T13:29:07;29.60;86.40
23207;DHT22;11773;52.570;13.052;2022-07-30T13:31:37;29.70;87.80
23207;DHT22;11773;52.570;13.052;2022-07-30T13:34:12;29.80;87.00
23207;DHT22;11773;52.570;13.052;2022-07-30T13:36:41;29.70;85.80
23207;DHT22;11773;52.570;13.052;2022-07-30T13:39:11;29.90;89.20
23207;DHT22;11773;52.570;13.052;2022-07-30T13:41:40;30.00;87.30
23207;DHT22;11773;52.570;13.052;2022-07-30T13:44:10;29.70;86.00
23207;DHT22;11773;52.570;13.052;2022-07-30T13:46:39;29.90;85.00
23207;DHT22;11773;52.570;13.052;2022-07-30T13:49:09;30.00;87.10
23207;DHT22;11773;52.570;13.052;2022-07-30T13:51:39;30.10;88.90
23207;DHT22;11773;52.570;13.052;2022-07-30T13:54:09;29.70;84.80
23207;DHT22;11773;52.570;13.052;2022-07-30T13:56:40;29.40;85.80
23207;DHT22;11773;52.570;13.052;2022-07-30T13:59:10;29.60;86.80
23207;DHT22;11773;52.570;13.052;2022-07-30T14:01:39;29.50;88.70
23207;DHT22;11773;52.570;13.052;2022-07-30T14:04:09;29.60;87.20
23207;DHT22;11773;52.570;13.052;2022-07-30T14:06:38;29.60;86.80
23207;DHT22;11773;52.570;13.052;2022-07-30T14:09:08;29.50;86.70
23207;DHT22;11773;52.570;13.052;2022-07-30T14:11:38;29.20;86.10
23207;DHT22;11773;52.570;13.052;2022-07-30T14:14:08;29.30;86.20
23207;DHT22;11773;52.570;13.052;2022-07-30T14:16:37;29.30;85.90
23207;DHT22;11773;52.570;13.052;2022-07-30T14:19:08;29.30;85.30
23207;DHT22;11773;52.570;13.052;2022-07-30T14:21:40;29.40;87.60
23207;DHT22;11773;52.570;13.052;2022-07-30T14:24:11;29.40;86.80
23207;DHT22;11773;52.570;13.052;2022-07-30T14:26:43;29.50;88.60
23207;DHT22;11773;52.570;13.052;2022-07-30T14:29:12;29.60;89.20
23207;DHT22;11773;52.570;13.052;2022-07-30T14:31:42;29.60;88.90
23207;DHT22;11773;52.570;13.052;2022-07-30T14:34:12;29.60;86.10
23207;DHT22;11773;52.570;13.052;2022-07-30T14:36:43;29.60;89.10
23207;DHT22;11773;52.570;13.052;2022-07-30T14:39:13;29.70;86.20
23207;DHT22;11773;52.570;13.052;2022-07-30T14:41:43;29.70;85.10
23207;DHT22;11773;52.570;13.052;2022-07-30T14:44:12;29.60;89.30
23207;DHT22;11773;52.570;13.052;2022-07-30T14:46:43;29.50;86.10
23207;DHT22;11773;52.570;13.052;2022-07-30T14:49:15;29.20;84.30
23207;DHT22;11773;52.570;13.052;2022-07-30T14:51:45;29.40;91.20
23207;DHT22;11773;52.570;13.052;2022-07-30T14:54:15;29.30;87.50
23207;DHT22;11773;52.570;13.052;2022-07-30T14:56:45;29.30;86.30
23207;DHT22;11773;52.570;13.052;2022-07-30T14:59:14;29.10;86.70
23207;DHT22;11773;52.570;13.052;2022-07-30T15:01:44;29.30;86.30
23207;DHT22;11773;52.570;13.052;2022-07-30T15:04:14;29.40;88.90
23207;DHT22;11773;52.570;13.052;2022-07-30T15:06:44;29.40;86.70
23207;DHT22;11773;52.570;13.052;2022-07-30T15:09:13;29.20;85.60
23207;DHT22;11773;52.570;13.052;2022-07-30T15:11:43;29.10;89.50
23207;DHT22;11773;52.570;13.052;2022-07-30T15:14:15;29.30;86.60
23207;DHT22;11773;52.570;13.052;2022-07-30T15:16:46;29.10;87.10
23207;DHT22;11773;52.570;13.052;2022-07-30T15:19:16;29.00;88.20
23207;DHT22;11773;52.570;13.052;2022-07-30T15:21:45;29.00;87.00
23207;DHT22;11773;52.570;13.052;2022-07-30T15:24:15;28.70;89.40
23207;DHT22;11773;52.570;13.052;2022-07-30T15:26:44;28.90;87.30
23207;DHT22;11773;52.570;13.052;2022-07-30T15:29:15;28.70;87.70
23207;DHT22;11773;52.570;13.052;2022-07-30T15:31:44;29.00;90.60
23207;DHT22;11773;52.570;13.052;2022-07-30T15:34:14;29.00;88.10
23207;DHT22;11773;52.570;13.052;2022-07-30T15:36:43;29.10;89.60
23207;DHT22;11773;52.570;13.052;2022-07-30T15:39:13;28.90;87.20
23207;DHT22;11773;52.570;13.052;2022-07-30T15:41:43;28.90;86.00
23207;DHT22;11773;52.570;13.052;2022-07-30T15:44:12;28.90;89.20
23207;DHT22;11773;52.570;13.052;2022-07-30T15:46:44;28.90;88.30
23207;DHT22;11773;52.570;13.052;2022-07-30T15:49:13;29.00;88.50
23207;DHT22;11773;52.570;13.052;2022-07-30T15:51:43;29.00;88.30
23207;DHT22;11773;52.570;13.052;2022-07-30T15:54:15;29.00;87.30
23207;DHT22;11773;52.570;13.052;2022-07-30T15:56:47;29.00;88.00
23207;DHT22;11773;52.570;13.052;2022-07-30T15:59:17;28.90;88.50
23207;DHT22;11773;52.570;13.052;2022-07-30T16:01:48;28.70;90.00
23207;DHT22;11773;52.570;13.052;2022-07-30T16:04:17;28.90;89.30
23207;DHT22;11773;52.570;13.052;2022-07-30T16:06:49;28.70;87.50
23207;DHT22;11773;52.570;13.052;2022-07-30T16:09:20;28.60;89.10
23207;DHT22;11773;52.570;13.052;2022-07-30T16:11:49;28.50;88.60
23207;DHT22;11773;52.570;13.052;2022-07-30T16:14:19;28.60;88.10